sensor_id;sensor_type;location;lat;lon;timestamp;temperature;humidity
2603;DHT22;1311;47.966;7.958;2022-09-09T00:01:39;15.00;99.90
2603;DHT22;1311;47.966;7.958;2022-09-09T00:04:13;15.00;99.90
2603;DHT22;1311;47.966;7.958;2022-09-09T00:06:46;15.00;99.90
2603;DHT22;1311;47.966;7.958;2022-09-09T00:09:17;14.90;99.90
2603;DHT22;1311;47.966;7.958;2022-09-09T00:11:48;14.90;99.90
2603;DHT22;1311;47.966;7.958;2022-09-09T00:14:22;14.90;99.90
2603;DHT22;1311;47.966;7.958;2022-09-09T00:16:54;14.90;99.90
2603;DHT22;1311;47.966;7.958;2022-09-09T00:19:27;14.80;99.90
2603;DHT22;1311;47.966;7.958;2022-09-09T00:22:06;14.80;99.90
2603;DHT22;1311;47.966;7.958;2022-09-09T00:24:40;14.80;99.90
2603;DHT22;1311;47.966;7.958;2022-09-09T00:27:19;14.90;99.90
2603;DHT22;1311;47.966;7.958;2022-09-09T00:29:53;15.00;99.90
2603;DHT22;1311;47.966;7.958;2022-09-09T00:32:22;15.00;99.90
2603;DHT22;1311;47.966;7.958;2022-09-09T00:34:53;15.00;99.90
2603;DHT22;1311;47.966;7.958;2022-09-09T00:37:25;14.90;99.90
2603;DHT22;1311;47.966;7.958;2022-09-09T00:39:55;15.00;99.90
2603;DHT22;1311;47.966;7.958;2022-09-09T00:42:25;15.00;99.90
2603;DHT22;1311;47.966;7.958;2022-09-09T00:44:59;15.10;99.90
2603;DHT22;1311;47.966;7.958;2022-09-09T00:47:44;15.20;99.90
2603;DHT22;1311;47.966;7.958;2022-09-09T00:50:39;15.20;99.90
2603;DHT22;1311;47.966;7.958;2022-09-09T00:53:28;15.10;99.90
2603;DHT22;1311;47.966;7.958;2022-09-09T00:56:06;15.20;99.90
2603;DHT22;1311;47.966;7.958;2022-09-09T00:58:35;15.20;99.90
2603;DHT22;1311;47.966;7.958;2022-09-09T01:01:05;15.20;99.90
2603;DHT22;1311;47.966;7.958;2022-09-09T01:03:34;15.30;99.90
2603;DHT22;1311;47.966;7.958;2022-09-09T01:06:12;15.30;99.90
2603;DHT22;1311;47.966;7.958;2022-09-09T01:11:37;15.40;99.90
2603;DHT22;1311;47.966;7.958;2022-09-09T01:14:14;15.40;99.90
2603;DHT22;1311;47.966;7.958;2022-09-09T01:16:44;15.40;99.90
2603;DHT22;1311;47.966;7.958;2022-09-09T01:19:18;15.30;99.90
2603;DHT22;1311;47.966;7.958;2022-09-09T01:21:50;15.40;99.90
2603;DHT22;1311;47.966;7.958;2022-09-09T01:24:26;15.40;99.90
2603;DHT22;1311;47.966;7.958;2022-09-09T01:26:58;15.40;99.90
2603;DHT22;1311;47.966;7.958;2022-09-09T01:29:25;15.40;99.90
2603;DHT22;1311;47.966;7.958;2022-09-09T01:31:54;15.40;99.90
2603;DHT22;1311;47.966;7.958;2022-09-09T01:34:22;15.50;99.90
2603;DHT22;1311;47.966;7.958;2022-09-09T01:36:53;15.60;99.90
2603;DHT22;1311;47.966;7.958;2022-09-09T01:39:22;15.60;99.90
2603;DHT22;1311;47.966;7.958;2022-09-09T01:44:19;15.70;99.90
2603;DHT22;1311;47.966;7.958;2022-09-09T01:46:46;15.70;99.90
2603;DHT22;1311;47.966;7.958;2022-09-09T01:49:13;15.80;99.90
2603;DHT22;1311;47.966;7.958;2022-09-09T01:51:40;15.80;99.90
2603;DHT22;1311;47.966;7.958;2022-09-09T01:54:08;15.90;99.90
2603;DHT22;1311;47.966;7.958;2022-09-09T01:56:40;15.90;99.90
2603;DHT22;1311;47.966;7.958;2022-09-09T01:59:24;16.30;99.90
2603;DHT22;1311;47.966;7.958;2022-09-09T02:02:03;15.90;99.90
2603;DHT22;1311;47.966;7.958;2022-09-09T02:04:38;15.90;99.90
2603;DHT22;1311;47.966;7.958;2022-09-09T02:07:15;15.80;99.90
2603;DHT22;1311;47.966;7.958;2022-09-09T02:09:47;15.90;99.90
2603;DHT22;1311;47.966;7.958;2022-09-09T02:12:18;15.90;99.90
2603;DHT22;1311;47.966;7.958;2022-09-09T02:14:53;15.90;99.90
2603;DHT22;1311;47.966;7.958;2022-09-09T02:17:27;15.90;99.90
2603;DHT22;1311;47.966;7.958;2022-09-09T02:19:59;15.90;99.90
2603;DHT22;1311;47.966;7.958;2022-09-09T02:22:29;16.00;99.90
2603;DHT22;1311;47.966;7.958;2022-09-09T02:25:00;16.00;99.90
2603;DHT22;1311;47.966;7.958;2022-09-09T02:27:30;16.00;99.90
2603;DHT22;1311;47.966;7.958;2022-09-09T02:30:00;16.00;99.90
2603;DHT22;1311;47.966;7.958;2022-09-09T02:32:29;16.00;99.90
2603;DHT22;1311;47.966;7.958;2022-09-09T02:34:59;15.90;99.90
2603;DHT22;1311;47.966;7.958;2022-09-09T02:37:31;15.90;99.90
2603;DHT22;1311;47.966;7.958;2022-09-09T02:40:01;15.80;99.90
2603;DHT22;1311;47.966;7.958;2022-09-09T02:42:28;15.90;99.90
2603;DHT22;1311;47.966;7.958;2022-09-09T02:44:55;15.90;99.90
2603;DHT22;1311;47.966;7.958;2022-09-09T02:47:30;15.90;99.90
2603;DHT22;1311;47.966;7.958;2022-09-09T02:50:05;16.00;99.90
2603;DHT22;1311;47.966;7.958;2022-09-09T02:52:42;16.00;99.90
2603;DHT22;1311;47.966;7.958;2022-09-09T02:55:16;16.00;99.90
2603;DHT22;1311;47.966;7.958;2022-09-09T02:57:46;16.10;99.90
2603;DHT22;1311;47.966;7.958;2022-09-09T03:00:14;16.10;99.90
2603;DHT22;1311;47.966;7.958;2022-09-09T03:02:42;16.10;99.90
2603;DHT22;1311;47.966;7.958;2022-09-09T03:05:10;16.20;99.90
2603;DHT22;1311;47.966;7.958;2022-09-09T03:07:38;16.10;99.90
2603;DHT22;1311;47.966;7.958;2022-09-09T03:10:06;16.10;99.90
2603;DHT22;1311;47.966;7.958;2022-09-09T03:12:33;16.10;99.90
2603;DHT22;1311;47.966;7.958;2022-09-09T03:15:00;16.20;99.90
2603;DHT22;1311;47.966;7.958;2022-09-09T03:17:27;16.10;99.90
2603;DHT22;1311;47.966;7.958;2022-09-09T03:19:55;16.20;99.90
2603;DHT22;1311;47.966;7.958;2022-09-09T03:22:24;16.10;99.90
2603;DHT22;1311;47.966;7.958;2022-09-09T03:24:51;16.20;99.90
2603;DHT22;1311;47.966;7.958;2022-09-09T03:29:49;16.20;99.90
2603;DHT22;1311;47.966;7.958;2022-09-09T03:32:16;16.20;99.90
2603;DHT22;1311;47.966;7.958;2022-09-09T03:34:44;16.30;99.90
2603;DHT22;1311;47.966;7.958;2022-09-09T03:37:14;16.30;99.90
2603;DHT22;1311;47.966;7.958;2022-09-09T03:39:40;16.30;99.90
2603;DHT22;1311;47.966;7.958;2022-09-09T03:42:11;16.30;99.90
2603;DHT22;1311;47.966;7.958;2022-09-09T03:44:39;16.30;99.90
2603;DHT22;1311;47.966;7.958;2022-09-09T03:47:07;16.30;99.90
2603;DHT22;1311;47.966;7.958;2022-09-09T03:49:34;16.30;99.90
2603;DHT22;1311;47.966;7.958;2022-09-09T03:52:01;16.40;99.90
2603;DHT22;1311;47.966;7.958;2022-09-09T03:54:30;16.30;99.90
2603;DHT22;1311;47.966;7.958;2022-09-09T03:56:56;16.30;99.90
2603;DHT22;1311;47.966;7.958;2022-09-09T03:59:23;16.40;99.90
2603;DHT22;1311;47.966;7.958;2022-09-09T04:01:50;16.40;99.90
2603;DHT22;1311;47.966;7.958;2022-09-09T04:04:17;16.90;99.90
2603;DHT22;1311;47.966;7.958;2022-09-09T04:06:45;16.40;99.90
2603;DHT22;1311;47.966;7.958;2022-09-09T04:09:13;16.30;99.90
2603;DHT22;1311;47.966;7.958;2022-09-09T04:11:41;16.40;99.90
2603;DHT22;1311;47.966;7.958;2022-09-09T04:14:08;16.40;99.90
2603;DHT22;1311;47.966;7.958;2022-09-09T04:19:02;16.40;99.90
2603;DHT22;1311;47.966;7.958;2022-09-09T04:21:30;16.40;99.90
2603;DHT22;1311;47.966;7.958;2022-09-09T04:23:56;16.40;99.90
2603;DHT22;1311;47.966;7.958;2022-09-09T04:26:23;16.50;99.90
2603;DHT22;1311;47.966;7.958;2022-09-09T04:28:51;16.50;99.90
2603;DHT22;1311;47.966;7.958;2022-09-09T04:31:19;16.50;99.90
2603;DHT22;1311;47.966;7.958;2022-09-09T04:33:48;16.50;99.90
2603;DHT22;1311;47.966;7.958;2022-09-09T04:36:15;16.50;99.90
2603;DHT22;1311;47.966;7.958;2022-09-09T04:43:38;16.60;99.90
2603;DHT22;1311;47.966;7.958;2022-09-09T04:46:06;16.60;99.90
2603;DHT22;1311;47.966;7.958;2022-09-09T04:48:33;16.70;99.90
2603;DHT22;1311;47.966;7.958;2022-09-09T04:51:02;16.70;99.90
2603;DHT22;1311;47.966;7.958;2022-09-09T04:56:01;16.70;99.90
2603;DHT22;1311;47.966;7.958;2022-09-09T05:01:03;16.80;99.90
2603;DHT22;1311;47.966;7.958;2022-09-09T05:03:31;16.80;99.90
2603;DHT22;1311;47.966;7.958;2022-09-09T05:06:03;16.80;99.90
2603;DHT22;1311;47.966;7.958;2022-09-09T05:10:57;16.80;99.90
2603;DHT22;1311;47.966;7.958;2022-09-09T05:13:25;16.80;99.90
2603;DHT22;1311;47.966;7.958;2022-09-09T05:15:52;16.80;99.90
2603;DHT22;1311;47.966;7.958;2022-09-09T05:20:49;16.90;99.90
2603;DHT22;1311;47.966;7.958;2022-09-09T05:23:16;16.90;99.90
2603;DHT22;1311;47.966;7.958;2022-09-09T05:25:43;16.90;99.90
2603;DHT22;1311;47.966;7.958;2022-09-09T05:28:12;16.90;99.90
2603;DHT22;1311;47.966;7.958;2022-09-09T05:30:39;17.00;99.90
2603;DHT22;1311;47.966;7.958;2022-09-09T05:33:06;17.00;99.90
2603;DHT22;1311;47.966;7.958;2022-09-09T05:38:04;17.00;99.90
2603;DHT22;1311;47.966;7.958;2022-09-09T05:43:00;17.10;99.90
2603;DHT22;1311;47.966;7.958;2022-09-09T05:45:29;17.10;99.90
2603;DHT22;1311;47.966;7.958;2022-09-09T05:47:55;17.20;99.90
2603;DHT22;1311;47.966;7.958;2022-09-09T05:50:22;17.20;99.90
2603;DHT22;1311;47.966;7.958;2022-09-09T05:52:49;17.30;99.90
2603;DHT22;1311;47.966;7.958;2022-09-09T05:55:18;17.30;99.90
2603;DHT22;1311;47.966;7.958;2022-09-09T05:57:48;17.20;99.90
2603;DHT22;1311;47.966;7.958;2022-09-09T06:02:50;17.30;99.90
2603;DHT22;1311;47.966;7.958;2022-09-09T06:12:41;17.40;99.90
2603;DHT22;1311;47.966;7.958;2022-09-09T06:15:08;17.40;99.90
2603;DHT22;1311;47.966;7.958;2022-09-09T06:20:05;17.50;99.90
2603;DHT22;1311;47.966;7.958;2022-09-09T06:24:59;17.60;99.90
2603;DHT22;1311;47.966;7.958;2022-09-09T06:27:27;17.60;99.90
2603;DHT22;1311;47.966;7.958;2022-09-09T06:29:55;17.70;99.90
2603;DHT22;1311;47.966;7.958;2022-09-09T06:32:22;17.80;99.90
2603;DHT22;1311;47.966;7.958;2022-09-09T06:34:49;18.00;99.90
2603;DHT22;1311;47.966;7.958;2022-09-09T06:37:15;18.20;99.90
2603;DHT22;1311;47.966;7.958;2022-09-09T06:39:42;18.30;99.90
2603;DHT22;1311;47.966;7.958;2022-09-09T06:47:04;18.40;99.90
2603;DHT22;1311;47.966;7.958;2022-09-09T06:52:00;18.50;99.90
2603;DHT22;1311;47.966;7.958;2022-09-09T06:54:27;18.60;99.90
2603;DHT22;1311;47.966;7.958;2022-09-09T06:59:21;18.80;99.90
2603;DHT22;1311;47.966;7.958;2022-09-09T07:01:47;18.70;99.90
2603;DHT22;1311;47.966;7.958;2022-09-09T07:04:18;18.40;99.90
2603;DHT22;1311;47.966;7.958;2022-09-09T07:06:45;18.60;99.90
2603;DHT22;1311;47.966;7.958;2022-09-09T07:09:13;18.70;99.90
2603;DHT22;1311;47.966;7.958;2022-09-09T07:11:42;18.90;99.90
2603;DHT22;1311;47.966;7.958;2022-09-09T07:19:05;19.40;99.90
2603;DHT22;1311;47.966;7.958;2022-09-09T07:21:34;19.40;99.90
2603;DHT22;1311;47.966;7.958;2022-09-09T07:24:02;19.40;99.90
2603;DHT22;1311;47.966;7.958;2022-09-09T07:26:33;19.50;99.90
2603;DHT22;1311;47.966;7.958;2022-09-09T07:29:00;19.50;99.90
2603;DHT22;1311;47.966;7.958;2022-09-09T07:31:30;19.60;99.90
2603;DHT22;1311;47.966;7.958;2022-09-09T07:33:58;19.30;99.90
2603;DHT22;1311;47.966;7.958;2022-09-09T07:36:27;19.30;99.90
2603;DHT22;1311;47.966;7.958;2022-09-09T07:38:58;19.40;99.90
2603;DHT22;1311;47.966;7.958;2022-09-09T07:41:26;19.40;99.90
2603;DHT22;1311;47.966;7.958;2022-09-09T07:43:54;19.40;99.90
2603;DHT22;1311;47.966;7.958;2022-09-09T07:46:22;19.40;99.90
2603;DHT22;1311;47.966;7.958;2022-09-09T07:48:50;19.50;99.90
2603;DHT22;1311;47.966;7.958;2022-09-09T07:51:20;19.60;99.90
2603;DHT22;1311;47.966;7.958;2022-09-09T07:53:48;19.60;99.90
2603;DHT22;1311;47.966;7.958;2022-09-09T07:56:19;19.80;99.90
2603;DHT22;1311;47.966;7.958;2022-09-09T07:58:49;19.90;99.90
2603;DHT22;1311;47.966;7.958;2022-09-09T08:01:19;19.70;99.90
2603;DHT22;1311;47.966;7.958;2022-09-09T08:03:52;19.70;99.90
2603;DHT22;1311;47.966;7.958;2022-09-09T08:06:19;19.70;99.90
2603;DHT22;1311;47.966;7.958;2022-09-09T08:08:50;19.90;99.90
2603;DHT22;1311;47.966;7.958;2022-09-09T08:11:19;19.90;99.90
2603;DHT22;1311;47.966;7.958;2022-09-09T08:13:45;19.90;99.90
2603;DHT22;1311;47.966;7.958;2022-09-09T08:16:14;19.80;99.90
2603;DHT22;1311;47.966;7.958;2022-09-09T08:18:41;19.90;99.90
2603;DHT22;1311;47.966;7.958;2022-09-09T08:21:09;20.00;99.90
2603;DHT22;1311;47.966;7.958;2022-09-09T08:23:38;20.00;99.90
2603;DHT22;1311;47.966;7.958;2022-09-09T08:26:07;19.90;99.90
2603;DHT22;1311;47.966;7.958;2022-09-09T08:28:38;19.80;99.90
2603;DHT22;1311;47.966;7.958;2022-09-09T08:31:07;19.70;99.90
2603;DHT22;1311;47.966;7.958;2022-09-09T08:33:33;19.60;99.90
2603;DHT22;1311;47.966;7.958;2022-09-09T08:36:02;19.50;99.90
2603;DHT22;1311;47.966;7.958;2022-09-09T08:38:29;19.30;99.90
2603;DHT22;1311;47.966;7.958;2022-09-09T08:40:59;19.30;99.90
2603;DHT22;1311;47.966;7.958;2022-09-09T08:43:31;19.20;99.90
2603;DHT22;1311;47.966;7.958;2022-09-09T08:46:05;19.20;99.90
2603;DHT22;1311;47.966;7.958;2022-09-09T08:48:46;19.40;99.90
2603;DHT22;1311;47.966;7.958;2022-09-09T08:51:14;19.50;99.90
2603;DHT22;1311;47.966;7.958;2022-09-09T08:53:43;19.50;99.90
2603;DHT22;1311;47.966;7.958;2022-09-09T08:56:14;19.50;99.90
2603;DHT22;1311;47.966;7.958;2022-09-09T08:58:47;19.70;99.90
2603;DHT22;1311;47.966;7.958;2022-09-09T09:01:33;19.70;99.90
2603;DHT22;1311;47.966;7.958;2022-09-09T09:04:06;19.80;99.90
2603;DHT22;1311;47.966;7.958;2022-09-09T09:06:46;19.80;99.90
2603;DHT22;1311;47.966;7.958;2022-09-09T09:09:22;19.90;99.90
2603;DHT22;1311;47.966;7.958;2022-09-09T09:11:53;20.10;99.90
2603;DHT22;1311;47.966;7.958;2022-09-09T09:14:23;20.20;99.90
2603;DHT22;1311;47.966;7.958;2022-09-09T09:16:54;20.40;99.90
2603;DHT22;1311;47.966;7.958;2022-09-09T09:19:23;20.50;99.90
2603;DHT22;1311;47.966;7.958;2022-09-09T09:21:56;20.50;99.90
2603;DHT22;1311;47.966;7.958;2022-09-09T09:24:29;20.70;99.90
2603;DHT22;1311;47.966;7.958;2022-09-09T09:27:00;20.90;99.90
2603;DHT22;1311;47.966;7.958;2022-09-09T09:29:33;21.20;99.90
2603;DHT22;1311;47.966;7.958;2022-09-09T09:32:04;21.40;99.90
2603;DHT22;1311;47.966;7.958;2022-09-09T09:34:31;21.70;99.90
2603;DHT22;1311;47.966;7.958;2022-09-09T09:36:59;22.00;99.90
2603;DHT22;1311;47.966;7.958;2022-09-09T09:39:29;22.20;99.90
2603;DHT22;1311;47.966;7.958;2022-09-09T09:41:56;22.40;99.90
2603;DHT22;1311;47.966;7.958;2022-09-09T09:44:26;22.40;99.90
2603;DHT22;1311;47.966;7.958;2022-09-09T09:47:04;22.40;99.90
2603;DHT22;1311;47.966;7.958;2022-09-09T09:49:33;22.30;99.90
2603;DHT22;1311;47.966;7.958;2022-09-09T09:52:01;23.20;99.90
2603;DHT22;1311;47.966;7.958;2022-09-09T09:54:29;22.50;99.90
2603;DHT22;1311;47.966;7.958;2022-09-09T09:56:56;22.60;99.90
2603;DHT22;1311;47.966;7.958;2022-09-09T09:59:35;22.70;99.90
2603;DHT22;1311;47.966;7.958;2022-09-09T10:02:16;22.80;99.90
2603;DHT22;1311;47.966;7.958;2022-09-09T10:04:45;23.00;99.90
2603;DHT22;1311;47.966;7.958;2022-09-09T10:07:16;23.00;99.90
2603;DHT22;1311;47.966;7.958;2022-09-09T10:09:43;22.90;99.90
2603;DHT22;1311;47.966;7.958;2022-09-09T10:12:19;22.70;99.90
2603;DHT22;1311;47.966;7.958;2022-09-09T10:14:58;22.70;99.90
2603;DHT22;1311;47.966;7.958;2022-09-09T10:17:36;22.60;99.90
2603;DHT22;1311;47.966;7.958;2022-09-09T10:20:17;22.60;99.90
2603;DHT22;1311;47.966;7.958;2022-09-09T10:22:50;22.80;99.90
2603;DHT22;1311;47.966;7.958;2022-09-09T10:25:30;22.90;99.90
2603;DHT22;1311;47.966;7.958;2022-09-09T10:28:34;22.90;99.90
2603;DHT22;1311;47.966;7.958;2022-09-09T10:31:14;22.90;99.90
2603;DHT22;1311;47.966;7.958;2022-09-09T10:33:49;23.20;99.90
2603;DHT22;1311;47.966;7.958;2022-09-09T10:36:21;23.40;99.90
2603;DHT22;1311;47.966;7.958;2022-09-09T10:38:52;23.50;99.90
2603;DHT22;1311;47.966;7.958;2022-09-09T10:41:33;23.60;99.90
2603;DHT22;1311;47.966;7.958;2022-09-09T10:44:17;23.60;99.90
2603;DHT22;1311;47.966;7.958;2022-09-09T10:47:06;23.00;99.90
2603;DHT22;1311;47.966;7.958;2022-09-09T10:49:55;22.70;99.90
2603;DHT22;1311;47.966;7.958;2022-09-09T10:52:31;22.20;99.90
2603;DHT22;1311;47.966;7.958;2022-09-09T10:55:09;21.70;99.90
2603;DHT22;1311;47.966;7.958;2022-09-09T10:57:40;21.60;99.90
2603;DHT22;1311;47.966;7.958;2022-09-09T11:00:16;21.50;99.90
2603;DHT22;1311;47.966;7.958;2022-09-09T11:02:43;21.60;99.90
2603;DHT22;1311;47.966;7.958;2022-09-09T11:05:15;21.60;99.90
2603;DHT22;1311;47.966;7.958;2022-09-09T11:07:48;21.40;99.90
2603;DHT22;1311;47.966;7.958;2022-09-09T11:10:23;21.30;99.90
2603;DHT22;1311;47.966;7.958;2022-09-09T11:12:54;21.30;99.90
2603;DHT22;1311;47.966;7.958;2022-09-09T11:15:30;21.50;99.90
2603;DHT22;1311;47.966;7.958;2022-09-09T11:18:01;21.50;99.90
2603;DHT22;1311;47.966;7.958;2022-09-09T11:20:28;21.50;99.90
2603;DHT22;1311;47.966;7.958;2022-09-09T11:23:01;21.70;99.90
2603;DHT22;1311;47.966;7.958;2022-09-09T11:25:34;21.60;99.90
2603;DHT22;1311;47.966;7.958;2022-09-09T11:28:26;21.60;99.90
2603;DHT22;1311;47.966;7.958;2022-09-09T11:31:07;21.40;99.90
2603;DHT22;1311;47.966;7.958;2022-09-09T11:33:58;21.40;99.90
2603;DHT22;1311;47.966;7.958;2022-09-09T11:36:43;21.40;99.90
2603;DHT22;1311;47.966;7.958;2022-09-09T11:39:36;21.60;99.90
2603;DHT22;1311;47.966;7.958;2022-09-09T11:42:07;21.50;99.90
2603;DHT22;1311;47.966;7.958;2022-09-09T11:44:42;21.80;99.90
2603;DHT22;1311;47.966;7.958;2022-09-09T11:47:20;21.90;99.90
2603;DHT22;1311;47.966;7.958;2022-09-09T11:49:50;21.90;99.90
2603;DHT22;1311;47.966;7.958;2022-09-09T11:52:22;21.80;99.90
2603;DHT22;1311;47.966;7.958;2022-09-09T11:54:55;22.20;99.90
2603;DHT22;1311;47.966;7.958;2022-09-09T11:57:27;22.40;99.90
2603;DHT22;1311;47.966;7.958;2022-09-09T11:59:57;22.60;99.90
2603;DHT22;1311;47.966;7.958;2022-09-09T12:02:26;23.10;99.90
2603;DHT22;1311;47.966;7.958;2022-09-09T12:05:00;22.80;99.90
2603;DHT22;1311;47.966;7.958;2022-09-09T12:07:36;22.50;99.90
2603;DHT22;1311;47.966;7.958;2022-09-09T12:10:20;22.30;99.90
2603;DHT22;1311;47.966;7.958;2022-09-09T12:12:49;22.00;99.90
2603;DHT22;1311;47.966;7.958;2022-09-09T12:15:27;21.90;99.90
2603;DHT22;1311;47.966;7.958;2022-09-09T12:17:56;22.30;99.90
2603;DHT22;1311;47.966;7.958;2022-09-09T12:20:34;21.90;99.90
2603;DHT22;1311;47.966;7.958;2022-09-09T12:23:18;22.30;99.90
2603;DHT22;1311;47.966;7.958;2022-09-09T12:26:00;22.40;99.90
2603;DHT22;1311;47.966;7.958;2022-09-09T12:28:41;22.50;99.90
2603;DHT22;1311;47.966;7.958;2022-09-09T12:31:15;22.60;99.90
2603;DHT22;1311;47.966;7.958;2022-09-09T12:33:45;22.70;99.90
2603;DHT22;1311;47.966;7.958;2022-09-09T12:36:15;22.80;99.90
2603;DHT22;1311;47.966;7.958;2022-09-09T12:38:43;22.80;99.90
2603;DHT22;1311;47.966;7.958;2022-09-09T12:41:20;23.00;99.90
2603;DHT22;1311;47.966;7.958;2022-09-09T12:43:47;23.00;99.90
2603;DHT22;1311;47.966;7.958;2022-09-09T12:46:21;23.00;99.90
2603;DHT22;1311;47.966;7.958;2022-09-09T12:48:52;22.50;99.90
2603;DHT22;1311;47.966;7.958;2022-09-09T12:51:26;22.70;99.90
2603;DHT22;1311;47.966;7.958;2022-09-09T12:53:54;22.60;99.90
2603;DHT22;1311;47.966;7.958;2022-09-09T12:56:24;22.60;99.90
2603;DHT22;1311;47.966;7.958;2022-09-09T12:58:54;22.50;99.90
2603;DHT22;1311;47.966;7.958;2022-09-09T13:01:23;22.30;99.90
2603;DHT22;1311;47.966;7.958;2022-09-09T13:03:50;22.20;99.90
2603;DHT22;1311;47.966;7.958;2022-09-09T13:06:20;22.10;99.90
2603;DHT22;1311;47.966;7.958;2022-09-09T13:08:48;22.30;99.90
2603;DHT22;1311;47.966;7.958;2022-09-09T13:11:18;22.30;99.90
2603;DHT22;1311;47.966;7.958;2022-09-09T13:13:52;22.30;99.90
2603;DHT22;1311;47.966;7.958;2022-09-09T13:16:22;21.80;99.90
2603;DHT22;1311;47.966;7.958;2022-09-09T13:18:49;21.50;99.90
2603;DHT22;1311;47.966;7.958;2022-09-09T13:21:17;21.30;99.90
2603;DHT22;1311;47.966;7.958;2022-09-09T13:23:49;21.30;99.90
2603;DHT22;1311;47.966;7.958;2022-09-09T13:26:23;21.10;99.90
2603;DHT22;1311;47.966;7.958;2022-09-09T13:28:53;21.10;99.90
2603;DHT22;1311;47.966;7.958;2022-09-09T13:31:22;20.80;99.90
2603;DHT22;1311;47.966;7.958;2022-09-09T13:33:49;20.60;99.90
2603;DHT22;1311;47.966;7.958;2022-09-09T13:36:28;20.60;99.90
2603;DHT22;1311;47.966;7.958;2022-09-09T13:38:57;20.60;99.90
2603;DHT22;1311;47.966;7.958;2022-09-09T13:41:28;20.30;99.90
2603;DHT22;1311;47.966;7.958;2022-09-09T13:43:58;20.20;99.90
2603;DHT22;1311;47.966;7.958;2022-09-09T13:46:31;20.40;99.90
2603;DHT22;1311;47.966;7.958;2022-09-09T13:48:59;20.60;99.90
2603;DHT22;1311;47.966;7.958;2022-09-09T13:51:32;20.60;99.90
2603;DHT22;1311;47.966;7.958;2022-09-09T13:54:00;21.00;99.90
2603;DHT22;1311;47.966;7.958;2022-09-09T13:56:28;21.30;99.90
2603;DHT22;1311;47.966;7.958;2022-09-09T13:58:56;21.50;99.90
2603;DHT22;1311;47.966;7.958;2022-09-09T14:01:24;21.70;99.90
2603;DHT22;1311;47.966;7.958;2022-09-09T14:03:50;22.00;99.90
2603;DHT22;1311;47.966;7.958;2022-09-09T14:06:18;22.30;99.90
2603;DHT22;1311;47.966;7.958;2022-09-09T14:08:47;22.40;99.90
2603;DHT22;1311;47.966;7.958;2022-09-09T14:11:14;22.40;99.90
2603;DHT22;1311;47.966;7.958;2022-09-09T14:13:41;22.50;99.90
2603;DHT22;1311;47.966;7.958;2022-09-09T14:16:09;22.60;99.90
2603;DHT22;1311;47.966;7.958;2022-09-09T14:18:36;22.90;99.90
2603;DHT22;1311;47.966;7.958;2022-09-09T14:21:04;22.90;99.90
2603;DHT22;1311;47.966;7.958;2022-09-09T14:23:31;22.80;99.90
2603;DHT22;1311;47.966;7.958;2022-09-09T14:25:58;22.80;99.90
2603;DHT22;1311;47.966;7.958;2022-09-09T14:30:54;22.90;99.90
2603;DHT22;1311;47.966;7.958;2022-09-09T14:33:22;22.90;99.90
2603;DHT22;1311;47.966;7.958;2022-09-09T14:35:56;22.70;99.90
2603;DHT22;1311;47.966;7.958;2022-09-09T14:40:50;22.40;99.90
2603;DHT22;1311;47.966;7.958;2022-09-09T14:43:17;22.40;99.90
2603;DHT22;1311;47.966;7.958;2022-09-09T14:45:43;22.30;99.90
2603;DHT22;1311;47.966;7.958;2022-09-09T14:50:40;22.10;99.90
2603;DHT22;1311;47.966;7.958;2022-09-09T14:53:07;22.30;99.90
2603;DHT22;1311;47.966;7.958;2022-09-09T14:55:34;22.20;99.90
2603;DHT22;1311;47.966;7.958;2022-09-09T14:58:02;22.00;99.90
2603;DHT22;1311;47.966;7.958;2022-09-09T15:00:29;21.70;99.90
2603;DHT22;1311;47.966;7.958;2022-09-09T15:05:23;21.60;99.90
2603;DHT22;1311;47.966;7.958;2022-09-09T15:07:51;21.60;99.90
2603;DHT22;1311;47.966;7.958;2022-09-09T15:10:18;21.80;99.90
2603;DHT22;1311;47.966;7.958;2022-09-09T15:15:13;21.90;99.90
2603;DHT22;1311;47.966;7.958;2022-09-09T15:20:08;21.80;99.90
2603;DHT22;1311;47.966;7.958;2022-09-09T15:22:35;21.60;99.90
2603;DHT22;1311;47.966;7.958;2022-09-09T15:25:05;21.70;99.90
2603;DHT22;1311;47.966;7.958;2022-09-09T15:27:34;21.60;99.90
2603;DHT22;1311;47.966;7.958;2022-09-09T15:37:23;21.10;99.90
2603;DHT22;1311;47.966;7.958;2022-09-09T15:42:18;20.80;99.90
2603;DHT22;1311;47.966;7.958;2022-09-09T15:44:45;20.70;99.90
2603;DHT22;1311;47.966;7.958;2022-09-09T15:47:12;20.60;99.90
2603;DHT22;1311;47.966;7.958;2022-09-09T15:49:40;20.50;99.90
2603;DHT22;1311;47.966;7.958;2022-09-09T15:52:10;20.50;99.90
2603;DHT22;1311;47.966;7.958;2022-09-09T15:54:37;20.50;99.90
2603;DHT22;1311;47.966;7.958;2022-09-09T15:57:06;20.40;99.90
2603;DHT22;1311;47.966;7.958;2022-09-09T15:59:35;20.40;99.90
2603;DHT22;1311;47.966;7.958;2022-09-09T16:02:03;20.40;99.90
2603;DHT22;1311;47.966;7.958;2022-09-09T16:04:30;20.40;99.90
2603;DHT22;1311;47.966;7.958;2022-09-09T16:07:00;20.30;99.90
2603;DHT22;1311;47.966;7.958;2022-09-09T16:09:30;20.30;99.90
2603;DHT22;1311;47.966;7.958;2022-09-09T16:11:58;20.20;99.90
2603;DHT22;1311;47.966;7.958;2022-09-09T16:16:55;20.10;99.90
2603;DHT22;1311;47.966;7.958;2022-09-09T16:19:22;20.00;99.90
2603;DHT22;1311;47.966;7.958;2022-09-09T16:21:49;21.50;99.90
2603;DHT22;1311;47.966;7.958;2022-09-09T16:24:18;19.90;99.90
2603;DHT22;1311;47.966;7.958;2022-09-09T16:26:46;19.70;99.90
2603;DHT22;1311;47.966;7.958;2022-09-09T16:29:14;19.50;99.90
2603;DHT22;1311;47.966;7.958;2022-09-09T16:31:42;19.20;99.90
2603;DHT22;1311;47.966;7.958;2022-09-09T16:34:11;19.00;99.90
2603;DHT22;1311;47.966;7.958;2022-09-09T16:36:39;18.80;99.90
2603;DHT22;1311;47.966;7.958;2022-09-09T16:39:08;18.70;99.90
2603;DHT22;1311;47.966;7.958;2022-09-09T16:41:36;18.60;99.90
2603;DHT22;1311;47.966;7.958;2022-09-09T16:44:05;18.70;99.90
2603;DHT22;1311;47.966;7.958;2022-09-09T16:46:34;18.70;99.90
2603;DHT22;1311;47.966;7.958;2022-09-09T16:49:02;18.90;99.90
2603;DHT22;1311;47.966;7.958;2022-09-09T16:51:33;19.20;99.90
2603;DHT22;1311;47.966;7.958;2022-09-09T16:54:02;19.20;99.90
2603;DHT22;1311;47.966;7.958;2022-09-09T16:56:30;19.10;99.90
2603;DHT22;1311;47.966;7.958;2022-09-09T16:59:01;18.90;99.90
2603;DHT22;1311;47.966;7.958;2022-09-09T17:01:30;18.70;99.90
2603;DHT22;1311;47.966;7.958;2022-09-09T17:04:00;18.60;99.90
2603;DHT22;1311;47.966;7.958;2022-09-09T17:06:31;18.50;99.90
2603;DHT22;1311;47.966;7.958;2022-09-09T17:09:02;18.50;99.90
2603;DHT22;1311;47.966;7.958;2022-09-09T17:11:29;18.20;99.90
2603;DHT22;1311;47.966;7.958;2022-09-09T17:13:57;18.10;99.90
2603;DHT22;1311;47.966;7.958;2022-09-09T17:16:27;17.90;99.90
2603;DHT22;1311;47.966;7.958;2022-09-09T17:18:55;17.80;99.90
2603;DHT22;1311;47.966;7.958;2022-09-09T17:21:24;17.50;99.90
2603;DHT22;1311;47.966;7.958;2022-09-09T17:23:57;17.50;99.90
2603;DHT22;1311;47.966;7.958;2022-09-09T17:26:27;17.40;99.90
2603;DHT22;1311;47.966;7.958;2022-09-09T17:28:54;17.30;99.90
2603;DHT22;1311;47.966;7.958;2022-09-09T17:31:24;17.30;99.90
2603;DHT22;1311;47.966;7.958;2022-09-09T17:33:51;17.20;99.90
2603;DHT22;1311;47.966;7.958;2022-09-09T17:36:21;17.10;99.90
2603;DHT22;1311;47.966;7.958;2022-09-09T17:38:48;17.00;99.90
2603;DHT22;1311;47.966;7.958;2022-09-09T17:41:18;16.90;99.90
2603;DHT22;1311;47.966;7.958;2022-09-09T17:43:46;16.90;99.90
2603;DHT22;1311;47.966;7.958;2022-09-09T17:46:15;16.80;99.90
2603;DHT22;1311;47.966;7.958;2022-09-09T17:48:43;16.70;99.90
2603;DHT22;1311;47.966;7.958;2022-09-09T17:51:12;16.50;99.90